createdAt,value
2019-01-25T00:00:23.060Z,21.0
2019-01-25T00:01:22.986Z,21.2
2019-01-25T00:02:23.353Z,21.2
2019-01-25T00:03:23.306Z,20.3
2019-01-25T00:04:23.006Z,20.9
2019-01-25T00:05:23.025Z,21.8
2019-01-25T00:06:25.835Z,20.7
2019-01-25T00:07:23.372Z,21.2
2019-01-25T00:08:23.021Z,20.6
2019-01-25T00:09:23.089Z,21.3
2019-01-25T00:10:23.342Z,21.0
2019-01-25T00:11:23.052Z,21.8
2019-01-25T00:12:23.095Z,21.2
2019-01-25T00:13:23.364Z,21.1
2019-01-25T00:14:23.026Z,21.5
2019-01-25T00:15:23.026Z,20.7
2019-01-25T00:16:23.058Z,21.6
2019-01-25T00:17:23.043Z,21.6
2019-01-25T00:18:23.366Z,21.5
2019-01-25T00:19:23.033Z,21.7
2019-01-25T00:20:23.113Z,21.2
2019-01-25T00:21:23.064Z,21.0
2019-01-25T00:22:23.351Z,20.6
2019-01-25T00:23:23.050Z,21.2
2019-01-25T00:24:23.343Z,22.2
2019-01-25T00:25:23.033Z,21.4
2019-01-25T00:26:23.027Z,21.0
2019-01-25T00:27:23.094Z,21.5
2019-01-25T00:29:22.942Z,22.1
2019-01-25T00:30:23.387Z,21.6
2019-01-25T00:31:22.993Z,20.3
2019-01-25T00:32:23.290Z,21.3
2019-01-25T00:33:23.010Z,21.3
2019-01-25T00:34:23.022Z,20.3
2019-01-25T00:35:22.996Z,20.8
2019-01-25T00:36:23.048Z,21.4
2019-01-25T00:37:22.987Z,21.3
2019-01-25T00:38:23.049Z,21.2
2019-01-25T00:39:23.663Z,21.9
2019-01-25T00:40:23.033Z,20.9
2019-01-25T00:41:23.404Z,20.8
2019-01-25T00:42:23.322Z,21.5
2019-01-25T00:43:23.055Z,21.1
2019-01-25T00:44:23.039Z,21.5
2019-01-25T00:45:23.368Z,21.5
2019-01-25T00:46:23.060Z,21.7
2019-01-25T00:47:23.109Z,20.7
2019-01-25T00:48:23.351Z,21.2
2019-01-25T00:49:23.064Z,20.4
2019-01-25T00:50:22.996Z,19.7
2019-01-25T00:51:23.087Z,21.4
2019-01-25T00:52:23.019Z,20.6
2019-01-25T00:53:23.306Z,20.5
2019-01-25T00:54:23.044Z,20.9
2019-01-25T00:55:23.053Z,21.3
2019-01-25T00:56:23.313Z,20.5
2019-01-25T00:57:23.333Z,21.1
2019-01-25T00:58:23.397Z,20.6
2019-01-25T00:59:23.089Z,21.1
2019-01-25T01:00:23.019Z,21.1
2019-01-25T01:01:23.083Z,20.6
2019-01-25T01:02:23.322Z,20.6
2019-01-25T01:03:23.075Z,20.6
2019-01-25T01:04:22.998Z,21.0
2019-01-25T01:05:23.026Z,20.5
2019-01-25T01:06:23.083Z,20.7
2019-01-25T01:07:26.208Z,20.2
2019-01-25T01:08:23.031Z,20.6
2019-01-25T01:09:23.388Z,20.4
2019-01-25T01:10:23.077Z,19.8
2019-01-25T01:11:23.029Z,19.9
2019-01-25T01:12:23.025Z,19.9
2019-01-25T01:13:23.042Z,20.0
2019-01-25T01:14:23.083Z,20.3
2019-01-25T01:15:23.330Z,20.7
2019-01-25T01:16:23.031Z,20.3
2019-01-25T01:17:23.031Z,20.5
2019-01-25T01:18:23.045Z,20.2
2019-01-25T01:19:23.171Z,20.1
2019-01-25T01:20:23.043Z,20.6
2019-01-25T01:21:23.123Z,19.4
2019-01-25T01:22:23.462Z,19.8
2019-01-25T01:23:23.094Z,20.0
2019-01-25T01:24:23.424Z,19.7
2019-01-25T01:25:23.374Z,20.3
2019-01-25T01:26:23.169Z,19.6
2019-01-25T01:27:23.178Z,20.3
2019-01-25T01:28:23.088Z,20.4
2019-01-25T01:29:23.403Z,20.1
2019-01-25T01:30:23.088Z,19.6
2019-01-25T01:31:23.144Z,19.9
2019-01-25T01:32:23.137Z,19.7
2019-01-25T01:33:23.110Z,20.8
2019-01-25T01:34:23.368Z,20.2
2019-01-25T01:35:23.367Z,19.6
2019-01-25T01:36:23.407Z,20.3
2019-01-25T01:37:23.088Z,19.9
2019-01-25T01:38:23.097Z,19.3
2019-01-25T01:39:23.415Z,19.2
2019-01-25T01:40:23.191Z,19.7
2019-01-25T01:41:23.081Z,19.9
2019-01-25T01:42:23.452Z,19.5
2019-01-25T01:43:23.511Z,20.1
2019-01-25T01:44:23.140Z,19.5
2019-01-25T01:45:23.135Z,19.9
2019-01-25T01:46:23.131Z,20.0
2019-01-25T01:47:23.169Z,19.5
2019-01-25T01:48:23.120Z,19.0
2019-01-25T01:49:23.089Z,19.8
2019-01-25T01:50:23.162Z,19.3
2019-01-25T01:51:23.080Z,19.6
2019-01-25T01:52:23.125Z,18.8
2019-01-25T01:53:23.079Z,19.2
2019-01-25T01:54:23.154Z,19.1
2019-01-25T01:55:23.087Z,19.1
2019-01-25T01:56:23.098Z,19.5
2019-01-25T01:57:23.107Z,18.8
2019-01-25T01:58:23.113Z,18.4
2019-01-25T01:59:23.130Z,17.8
2019-01-25T02:00:23.097Z,17.8
2019-01-25T02:01:23.063Z,18.5
2019-01-25T02:02:23.128Z,17.9
2019-01-25T02:03:23.098Z,18.1
2019-01-25T02:04:23.167Z,18.6
2019-01-25T02:05:23.148Z,18.6
2019-01-25T02:06:23.144Z,18.0
2019-01-25T02:07:23.129Z,18.3
2019-01-25T02:08:26.519Z,18.3
2019-01-25T02:09:23.454Z,18.0
2019-01-25T02:10:29.033Z,18.1
2019-01-25T02:11:23.169Z,18.2
2019-01-25T02:12:23.109Z,18.8
2019-01-25T02:13:23.366Z,18.0
2019-01-25T02:14:23.152Z,18.6
2019-01-25T02:15:23.213Z,17.9
2019-01-25T02:16:23.168Z,17.6
2019-01-25T02:17:23.440Z,17.8
2019-01-25T02:18:23.151Z,18.0
2019-01-25T02:19:23.513Z,17.7
2019-01-25T02:20:23.173Z,17.8
2019-01-25T02:21:23.219Z,17.2
2019-01-25T02:22:23.430Z,16.9
2019-01-25T02:23:23.570Z,18.2
2019-01-25T02:24:23.198Z,17.8
2019-01-25T02:25:23.509Z,18.0
2019-01-25T02:26:23.174Z,17.3
2019-01-25T02:27:23.213Z,17.3
2019-01-25T02:28:23.954Z,17.9
2019-01-25T02:29:23.314Z,17.9
2019-01-25T02:30:23.554Z,17.4
2019-01-25T02:31:23.272Z,17.5
2019-01-25T02:32:23.259Z,17.4
2019-01-25T02:33:23.386Z,17.8
2019-01-25T02:34:23.163Z,17.6
2019-01-25T02:35:23.247Z,17.1
2019-01-25T02:36:23.161Z,17.0
2019-01-25T02:37:23.379Z,17.6
2019-01-25T02:38:23.243Z,17.1
2019-01-25T02:39:23.225Z,17.0
2019-01-25T02:40:23.577Z,17.4
2019-01-25T02:41:23.565Z,16.5
2019-01-25T02:42:23.501Z,17.2
2019-01-25T02:43:23.611Z,17.4
2019-01-25T02:44:23.215Z,16.7
2019-01-25T02:45:23.318Z,16.5
2019-01-25T02:46:23.551Z,16.8
2019-01-25T02:47:23.224Z,17.2
2019-01-25T02:48:23.285Z,17.3
2019-01-25T02:49:23.257Z,16.8
2019-01-25T02:50:23.285Z,17.3
2019-01-25T02:51:23.292Z,17.4
2019-01-25T02:52:23.522Z,16.7
2019-01-25T02:53:23.286Z,17.0
2019-01-25T02:54:23.539Z,17.5
2019-01-25T02:55:23.293Z,17.2
2019-01-25T02:56:23.298Z,17.3
2019-01-25T02:57:23.552Z,16.4
2019-01-25T02:58:23.264Z,16.3
2019-01-25T02:59:23.206Z,16.5
2019-01-25T03:00:23.242Z,16.8
2019-01-25T03:01:23.264Z,16.5
2019-01-25T03:02:23.255Z,17.3
2019-01-25T03:03:23.234Z,16.9
2019-01-25T03:04:23.549Z,16.9
2019-01-25T03:05:23.322Z,17.1
2019-01-25T03:06:23.270Z,17.8
2019-01-25T03:07:23.271Z,16.9
2019-01-25T03:08:23.229Z,16.8
2019-01-25T03:09:26.709Z,17.2
2019-01-25T03:10:28.263Z,16.6
2019-01-25T03:11:23.947Z,16.9
2019-01-25T03:12:23.254Z,16.9
2019-01-25T03:13:23.326Z,16.8
2019-01-25T03:14:23.556Z,17.2
2019-01-25T03:15:23.368Z,17.0
2019-01-25T03:16:23.261Z,15.9
2019-01-25T03:17:23.555Z,16.4
2019-01-25T03:18:23.577Z,16.6
2019-01-25T03:19:23.946Z,16.7
2019-01-25T03:20:23.282Z,16.8
2019-01-25T03:21:23.279Z,16.4
2019-01-25T03:22:23.529Z,16.9
2019-01-25T03:23:23.344Z,16.4
2019-01-25T03:24:23.253Z,16.3
2019-01-25T03:25:23.329Z,16.8
2019-01-25T03:26:23.311Z,16.9
2019-01-25T03:27:23.337Z,16.7
2019-01-25T03:28:23.305Z,16.9
2019-01-25T03:29:23.327Z,16.8
2019-01-25T03:30:23.369Z,17.1
2019-01-25T03:31:23.413Z,16.6
2019-01-25T03:32:23.611Z,16.7
2019-01-25T03:33:23.828Z,16.7
2019-01-25T03:34:23.596Z,16.8
2019-01-25T03:35:23.721Z,16.5
2019-01-25T03:36:23.509Z,16.2
2019-01-25T03:37:23.671Z,16.0
2019-01-25T03:38:23.307Z,17.2
2019-01-25T03:39:23.382Z,16.5
2019-01-25T03:40:23.385Z,16.6
2019-01-25T03:41:23.337Z,16.4
2019-01-25T03:42:23.597Z,16.7
2019-01-25T03:43:23.370Z,16.3
2019-01-25T03:44:23.321Z,16.2
2019-01-25T03:45:23.430Z,16.0
2019-01-25T03:46:23.303Z,15.8
2019-01-25T03:47:23.392Z,16.2
2019-01-25T03:48:23.365Z,16.4
2019-01-25T03:49:23.380Z,15.8
2019-01-25T03:50:23.624Z,16.3
2019-01-25T03:51:23.731Z,16.0
2019-01-25T03:52:23.707Z,15.9
2019-01-25T03:53:23.447Z,15.9
2019-01-25T03:54:23.410Z,15.8
2019-01-25T03:55:23.419Z,15.1
2019-01-25T03:56:23.345Z,15.7
2019-01-25T03:57:23.435Z,15.8
2019-01-25T03:58:23.372Z,15.9
2019-01-25T03:59:23.422Z,15.5
2019-01-25T04:00:23.602Z,15.2
2019-01-25T04:01:23.408Z,15.4
2019-01-25T04:02:23.357Z,15.9
2019-01-25T04:03:23.339Z,15.4
2019-01-25T04:04:23.402Z,15.2
2019-01-25T04:05:23.322Z,15.0
2019-01-25T04:06:23.642Z,15.2
2019-01-25T04:07:23.392Z,15.8
2019-01-25T04:08:23.368Z,15.3
2019-01-25T04:09:23.372Z,14.7
2019-01-25T04:10:27.081Z,15.3
2019-01-25T04:11:23.676Z,15.2
2019-01-25T04:12:23.643Z,15.3
2019-01-25T04:13:23.392Z,15.0
2019-01-25T04:14:23.318Z,14.3
2019-01-25T04:15:23.343Z,16.1
2019-01-25T04:16:23.399Z,15.3
2019-01-25T04:17:23.393Z,15.0
2019-01-25T04:18:23.342Z,14.5
2019-01-25T04:19:23.409Z,14.9
2019-01-25T04:20:23.416Z,15.7
2019-01-25T04:21:23.629Z,14.9
2019-01-25T04:22:23.393Z,14.5
2019-01-25T04:23:23.387Z,14.8
2019-01-25T04:24:23.677Z,15.1
2019-01-25T04:25:23.738Z,15.1
2019-01-25T04:26:23.687Z,14.9
2019-01-25T04:27:23.723Z,14.4
2019-01-25T04:28:23.382Z,14.3
2019-01-25T04:29:23.361Z,15.0
2019-01-25T04:30:23.397Z,15.2
2019-01-25T04:31:23.385Z,14.7
2019-01-25T04:32:23.452Z,14.4
2019-01-25T04:33:23.410Z,14.6
2019-01-25T04:34:23.424Z,14.7
2019-01-25T04:35:23.403Z,14.4
2019-01-25T04:36:23.436Z,14.1
2019-01-25T04:37:23.713Z,14.0
2019-01-25T04:38:23.452Z,14.0
2019-01-25T04:39:23.419Z,15.0
2019-01-25T04:40:23.411Z,14.4
2019-01-25T04:41:23.732Z,14.5
2019-01-25T04:42:23.385Z,14.0
2019-01-25T04:43:23.464Z,14.3
2019-01-25T04:44:23.415Z,14.4
2019-01-25T04:45:23.482Z,13.6
2019-01-25T04:46:23.695Z,14.2
2019-01-25T04:47:23.438Z,14.1
2019-01-25T04:48:23.429Z,14.0
2019-01-25T04:49:23.461Z,13.7
2019-01-25T04:50:23.476Z,13.9
2019-01-25T04:51:23.428Z,14.1
2019-01-25T04:52:23.418Z,14.3
2019-01-25T04:53:24.016Z,13.6
2019-01-25T04:54:23.407Z,13.4
2019-01-25T04:55:23.451Z,13.5
2019-01-25T04:56:23.402Z,14.4
2019-01-25T04:57:23.497Z,14.5
2019-01-25T04:58:23.733Z,14.0
2019-01-25T04:59:23.707Z,14.0
2019-01-25T05:00:23.468Z,13.5
2019-01-25T05:01:23.420Z,14.2
2019-01-25T05:02:23.739Z,13.9
2019-01-25T05:03:23.479Z,13.8
2019-01-25T05:04:23.730Z,13.5
2019-01-25T05:05:23.493Z,14.1
2019-01-25T05:06:23.430Z,13.2
2019-01-25T05:07:23.367Z,14.3
2019-01-25T05:08:23.749Z,13.7
2019-01-25T05:09:23.427Z,13.8
2019-01-25T05:10:23.414Z,13.5
2019-01-25T05:11:27.144Z,13.4
2019-01-25T05:12:23.435Z,13.7
2019-01-25T05:13:23.408Z,13.9
2019-01-25T05:14:23.392Z,13.3
2019-01-25T05:15:23.411Z,13.6
2019-01-25T05:16:23.751Z,13.4
2019-01-25T05:17:23.406Z,13.1
2019-01-25T05:18:23.721Z,13.3
2019-01-25T05:19:23.528Z,13.4
2019-01-25T05:20:23.437Z,12.9
2019-01-25T05:21:23.452Z,13.5
2019-01-25T05:22:23.401Z,13.6
2019-01-25T05:23:23.413Z,13.4
2019-01-25T05:24:23.709Z,13.5
2019-01-25T05:25:23.484Z,13.2
2019-01-25T05:26:23.704Z,13.4
2019-01-25T05:27:23.481Z,13.4
2019-01-25T05:28:23.758Z,13.4
2019-01-25T05:29:23.444Z,12.4
2019-01-25T05:30:23.452Z,12.9
2019-01-25T05:31:23.522Z,13.3
2019-01-25T05:32:23.538Z,12.9
2019-01-25T05:33:23.561Z,13.5
2019-01-25T05:34:23.437Z,13.0
2019-01-25T05:35:23.458Z,13.4
2019-01-25T05:36:23.736Z,12.7
2019-01-25T05:37:23.676Z,13.3
2019-01-25T05:38:23.479Z,13.4
2019-01-25T05:39:23.487Z,13.5
2019-01-25T05:40:23.474Z,13.1
2019-01-25T05:41:28.361Z,13.0
2019-01-25T05:42:23.532Z,13.4
2019-01-25T05:43:23.514Z,13.5
2019-01-25T05:44:23.802Z,13.4
2019-01-25T05:45:23.816Z,13.4
2019-01-25T05:46:23.550Z,13.4
2019-01-25T05:47:23.551Z,13.5
2019-01-25T05:48:23.565Z,13.4
2019-01-25T05:49:23.492Z,13.4
2019-01-25T05:50:23.852Z,13.7
2019-01-25T05:51:23.478Z,13.8
2019-01-25T05:52:23.768Z,13.0
2019-01-25T05:53:23.556Z,13.2
2019-01-25T05:54:23.544Z,13.0
2019-01-25T05:55:23.505Z,13.0
2019-01-25T05:56:23.834Z,13.1
2019-01-25T05:57:23.580Z,12.5
2019-01-25T05:58:23.518Z,12.7
2019-01-25T05:59:23.579Z,12.8
2019-01-25T06:00:23.542Z,12.8
2019-01-25T06:01:23.552Z,12.8
2019-01-25T06:02:23.553Z,12.7
2019-01-25T06:03:23.615Z,12.7
2019-01-25T06:04:23.581Z,13.1
2019-01-25T06:05:23.824Z,12.9
2019-01-25T06:06:24.549Z,12.6
2019-01-25T06:07:24.253Z,12.9
2019-01-25T06:08:24.093Z,12.9
2019-01-25T06:09:23.595Z,13.2
2019-01-25T06:10:23.580Z,12.7
2019-01-25T06:11:23.816Z,13.2
2019-01-25T06:12:27.881Z,12.7
2019-01-25T06:13:23.529Z,12.6
2019-01-25T06:14:23.845Z,12.8
2019-01-25T06:15:23.563Z,12.2
2019-01-25T06:16:23.819Z,12.7
2019-01-25T06:17:23.561Z,12.1
2019-01-25T06:18:23.540Z,12.4
2019-01-25T06:19:23.535Z,12.3
2019-01-25T06:20:24.436Z,12.0
2019-01-25T06:21:23.679Z,13.1
2019-01-25T06:22:23.576Z,11.4
2019-01-25T06:23:23.861Z,12.1
2019-01-25T06:24:23.543Z,12.0
2019-01-25T06:25:23.641Z,12.1
2019-01-25T06:26:23.552Z,12.1
2019-01-25T06:27:23.578Z,11.9
2019-01-25T06:28:23.652Z,12.5
2019-01-25T06:29:23.579Z,12.5
2019-01-25T06:30:23.630Z,12.9
2019-01-25T06:31:23.650Z,12.9
2019-01-25T06:32:23.594Z,12.8
2019-01-25T06:33:23.662Z,12.5
2019-01-25T06:34:23.952Z,12.5
2019-01-25T06:35:23.567Z,11.7
2019-01-25T06:36:23.625Z,12.0
2019-01-25T06:37:23.728Z,12.3
2019-01-25T06:38:23.614Z,12.4
2019-01-25T06:39:24.227Z,12.2
2019-01-25T06:40:23.596Z,12.4
2019-01-25T06:41:23.634Z,12.1
2019-01-25T06:42:24.050Z,12.6
2019-01-25T06:43:27.312Z,12.0
2019-01-25T06:44:23.911Z,12.2
2019-01-25T06:45:23.620Z,12.7
2019-01-25T06:46:23.951Z,12.1
2019-01-25T06:47:23.880Z,12.8
2019-01-25T06:48:23.602Z,12.7
2019-01-25T06:49:23.591Z,12.7
2019-01-25T06:50:23.620Z,12.1
2019-01-25T06:51:23.621Z,12.4
2019-01-25T06:52:23.680Z,12.4
2019-01-25T06:53:23.992Z,11.7
2019-01-25T06:54:23.665Z,12.4
2019-01-25T06:55:23.646Z,12.4
2019-01-25T06:56:23.647Z,12.6
2019-01-25T06:57:23.614Z,12.6
2019-01-25T06:58:23.900Z,12.5
2019-01-25T06:59:23.582Z,12.0
2019-01-25T07:00:23.947Z,12.6
2019-01-25T07:01:23.880Z,12.1
2019-01-25T07:02:23.625Z,11.8
2019-01-25T07:03:23.623Z,12.2
2019-01-25T07:04:23.973Z,12.0
2019-01-25T07:05:23.611Z,12.1
2019-01-25T07:06:23.658Z,12.2
2019-01-25T07:07:23.652Z,11.9
2019-01-25T07:08:23.934Z,12.4
2019-01-25T07:09:23.915Z,12.6
2019-01-25T07:10:23.643Z,12.5
2019-01-25T07:11:23.650Z,13.0
2019-01-25T07:12:23.947Z,12.9
2019-01-25T07:13:27.887Z,12.7
2019-01-25T07:14:23.940Z,12.5
2019-01-25T07:15:23.642Z,12.3
2019-01-25T07:16:23.655Z,12.5
2019-01-25T07:17:23.627Z,12.7
2019-01-25T07:18:23.640Z,12.6
2019-01-25T07:19:23.597Z,13.0
2019-01-25T07:20:23.944Z,11.8
2019-01-25T07:21:24.230Z,13.0
2019-01-25T07:22:23.698Z,12.8
2019-01-25T07:23:23.626Z,12.4
2019-01-25T07:24:23.957Z,13.3
2019-01-25T07:25:23.626Z,13.2
2019-01-25T07:26:23.707Z,13.3
2019-01-25T07:27:23.710Z,13.0
2019-01-25T07:28:27.390Z,12.0
2019-01-25T07:29:23.964Z,13.1
2019-01-25T07:30:23.674Z,13.1
2019-01-25T07:31:24.011Z,13.3
2019-01-25T07:32:24.045Z,13.4
2019-01-25T07:33:23.801Z,13.0
2019-01-25T07:34:23.715Z,13.5
2019-01-25T07:35:23.749Z,13.0
2019-01-25T07:36:23.977Z,12.9
2019-01-25T07:37:24.004Z,12.8
2019-01-25T07:38:23.718Z,13.0
2019-01-25T07:39:23.948Z,13.1
2019-01-25T07:40:23.703Z,12.5
2019-01-25T07:41:23.690Z,12.6
2019-01-25T07:42:23.704Z,13.1
2019-01-25T07:43:23.714Z,12.8
2019-01-25T07:44:23.692Z,12.3
2019-01-25T07:45:23.673Z,12.7
2019-01-25T07:46:23.690Z,12.8
2019-01-25T07:47:23.744Z,13.2
2019-01-25T07:48:23.726Z,13.0
2019-01-25T07:49:23.729Z,12.3
2019-01-25T07:50:23.701Z,12.6
2019-01-25T07:51:23.691Z,13.0
2019-01-25T07:52:23.697Z,12.3
2019-01-25T07:53:23.850Z,12.9
2019-01-25T07:54:23.760Z,12.8
2019-01-25T07:55:24.005Z,12.6
2019-01-25T07:56:23.888Z,13.1
2019-01-25T07:57:23.743Z,12.4
2019-01-25T07:58:23.695Z,12.4
2019-01-25T07:59:23.733Z,12.4
2019-01-25T08:00:24.022Z,13.1
2019-01-25T08:01:23.658Z,12.4
2019-01-25T08:02:23.690Z,13.2
2019-01-25T08:03:23.756Z,12.4
2019-01-25T08:04:23.834Z,13.2
2019-01-25T08:05:23.698Z,12.6
2019-01-25T08:06:23.737Z,13.2
2019-01-25T08:07:23.714Z,13.0
2019-01-25T08:08:23.749Z,13.2
2019-01-25T08:09:23.778Z,13.4
2019-01-25T08:10:23.796Z,12.8
2019-01-25T08:11:23.719Z,13.7
2019-01-25T08:12:24.092Z,13.8
2019-01-25T08:13:23.753Z,14.1
2019-01-25T08:14:28.172Z,13.2
2019-01-25T08:15:23.938Z,14.4
2019-01-25T08:16:24.108Z,13.3
2019-01-25T08:17:23.808Z,13.1
2019-01-25T08:18:24.108Z,13.4
2019-01-25T08:19:23.784Z,14.4
2019-01-25T08:20:23.841Z,14.0
2019-01-25T08:21:24.201Z,14.4
2019-01-25T08:22:23.832Z,14.5
2019-01-25T08:23:23.847Z,14.3
2019-01-25T08:24:23.781Z,14.7
2019-01-25T08:25:23.852Z,13.9
2019-01-25T08:26:23.831Z,14.3
2019-01-25T08:27:23.859Z,13.9
2019-01-25T08:28:23.797Z,14.5
2019-01-25T08:29:27.897Z,14.4
2019-01-25T08:30:23.943Z,14.1
2019-01-25T08:31:23.945Z,14.4
2019-01-25T08:32:24.056Z,14.5
2019-01-25T08:33:23.861Z,14.4
2019-01-25T08:34:23.841Z,14.3
2019-01-25T08:35:23.816Z,14.4
2019-01-25T08:36:23.848Z,14.4
2019-01-25T08:37:23.762Z,14.7
2019-01-25T08:38:23.968Z,13.9
2019-01-25T08:39:24.109Z,14.5
2019-01-25T08:40:23.863Z,14.7
2019-01-25T08:41:23.872Z,14.3
2019-01-25T08:42:23.810Z,14.9
2019-01-25T08:43:23.849Z,14.3
2019-01-25T08:44:23.803Z,14.8
2019-01-25T08:45:23.874Z,14.8
2019-01-25T08:46:23.825Z,14.8
2019-01-25T08:47:24.203Z,15.0
2019-01-25T08:48:24.197Z,14.9
2019-01-25T08:49:23.802Z,15.3
2019-01-25T08:50:23.872Z,15.0
2019-01-25T08:51:24.117Z,15.0
2019-01-25T08:52:23.883Z,14.9
2019-01-25T08:53:23.842Z,15.3
2019-01-25T08:54:23.775Z,15.1
2019-01-25T08:55:24.109Z,15.2
2019-01-25T08:56:23.789Z,16.6
2019-01-25T08:57:23.873Z,15.1
2019-01-25T08:58:24.209Z,16.2
2019-01-25T08:59:23.893Z,16.5
2019-01-25T09:00:23.888Z,16.0
2019-01-25T09:01:23.911Z,15.6
2019-01-25T09:02:23.837Z,16.1
2019-01-25T09:03:23.650Z,16.5
2019-01-25T09:04:23.697Z,16.2
2019-01-25T09:05:23.850Z,15.5
2019-01-25T09:06:23.835Z,15.8
2019-01-25T09:07:24.138Z,15.3
2019-01-25T09:08:24.247Z,15.4
2019-01-25T09:09:23.866Z,14.4
2019-01-25T09:10:26.317Z,15.1
2019-01-25T09:11:23.880Z,14.5
2019-01-25T09:12:23.938Z,14.2
2019-01-25T09:13:23.863Z,14.3
2019-01-25T09:14:23.961Z,13.8
2019-01-25T09:15:28.736Z,13.1
2019-01-25T09:16:23.894Z,13.5
2019-01-25T09:17:23.873Z,14.3
2019-01-25T09:18:23.859Z,14.0
2019-01-25T09:19:24.129Z,14.4
2019-01-25T09:20:24.038Z,14.4
2019-01-25T09:21:23.848Z,14.0
2019-01-25T09:22:23.812Z,13.7
2019-01-25T09:23:23.863Z,13.9
2019-01-25T09:24:23.836Z,14.3
2019-01-25T09:25:23.935Z,14.3
2019-01-25T09:26:23.910Z,15.1
2019-01-25T09:27:23.963Z,13.9
2019-01-25T09:28:23.885Z,14.3
2019-01-25T09:29:23.873Z,13.7
2019-01-25T09:30:23.921Z,14.2
2019-01-25T09:31:24.177Z,14.1
2019-01-25T09:32:23.886Z,14.5
2019-01-25T09:33:23.908Z,13.6
2019-01-25T09:34:23.920Z,13.4
2019-01-25T09:35:23.946Z,13.7
2019-01-25T09:36:23.916Z,14.3
2019-01-25T09:37:23.983Z,14.0
2019-01-25T09:38:23.888Z,13.9
2019-01-25T09:39:25.887Z,13.4
2019-01-25T09:40:25.495Z,13.4
2019-01-25T09:41:23.952Z,13.4
2019-01-25T09:42:30.745Z,13.7
2019-01-25T09:43:26.106Z,13.7
2019-01-25T09:44:26.185Z,13.4
2019-01-25T09:45:25.291Z,13.6
2019-01-25T09:46:24.655Z,13.5
2019-01-25T09:47:23.898Z,13.6
2019-01-25T09:48:24.275Z,13.0
2019-01-25T09:49:23.895Z,14.5
2019-01-25T09:50:25.516Z,13.9
2019-01-25T09:51:24.470Z,14.0
2019-01-25T09:52:25.206Z,14.2
2019-01-25T09:53:24.820Z,13.6
2019-01-25T09:54:24.588Z,13.7
2019-01-25T09:55:25.675Z,14.1
2019-01-25T09:56:25.525Z,14.0
2019-01-25T09:57:24.527Z,14.2
2019-01-25T09:58:24.243Z,14.2
2019-01-25T09:59:25.493Z,13.4
2019-01-25T10:00:24.879Z,13.7
2019-01-25T10:01:23.954Z,13.7
2019-01-25T10:02:24.991Z,14.2
2019-01-25T10:03:24.284Z,14.0
2019-01-25T10:04:23.927Z,14.4
2019-01-25T10:05:23.922Z,14.3
2019-01-25T10:06:23.890Z,13.4
2019-01-25T10:07:23.899Z,14.1
2019-01-25T10:08:23.987Z,14.5
2019-01-25T10:09:23.960Z,13.8
2019-01-25T10:10:23.915Z,13.9
2019-01-25T10:11:23.945Z,14.4
2019-01-25T10:12:23.958Z,14.7
2019-01-25T10:13:23.934Z,13.7
2019-01-25T10:14:23.953Z,14.4
2019-01-25T10:15:24.319Z,14.0
2019-01-25T10:16:24.789Z,14.9
2019-01-25T10:17:24.270Z,13.9
2019-01-25T10:18:24.700Z,14.5
2019-01-25T10:19:23.985Z,13.7
2019-01-25T10:20:23.935Z,14.2
2019-01-25T10:21:24.023Z,13.9
2019-01-25T10:22:23.972Z,15.0
2019-01-25T10:23:23.955Z,13.9
2019-01-25T10:24:24.070Z,14.9
2019-01-25T10:25:23.987Z,13.9
2019-01-25T10:26:23.997Z,14.4
2019-01-25T10:27:23.987Z,14.4
2019-01-25T10:28:23.942Z,15.0
2019-01-25T10:29:24.225Z,14.1
2019-01-25T10:30:24.013Z,14.4
2019-01-25T10:31:23.941Z,15.0
2019-01-25T10:32:24.019Z,14.5
2019-01-25T10:33:24.031Z,14.4
2019-01-25T10:34:24.292Z,13.8
2019-01-25T10:35:25.069Z,14.2
2019-01-25T10:36:23.998Z,14.8
2019-01-25T10:37:24.340Z,14.8
2019-01-25T10:38:24.088Z,15.0
2019-01-25T10:39:23.951Z,14.1
2019-01-25T10:40:24.300Z,14.9
2019-01-25T10:41:24.006Z,14.3
2019-01-25T10:42:23.985Z,15.2
2019-01-25T10:43:24.049Z,15.0
2019-01-25T10:44:23.982Z,14.8
2019-01-25T10:45:24.012Z,15.4
2019-01-25T10:46:24.084Z,13.7
2019-01-25T10:47:24.336Z,15.3
2019-01-25T10:48:24.024Z,14.6
2019-01-25T10:49:24.317Z,13.7
2019-01-25T10:50:24.025Z,14.9
2019-01-25T10:51:24.039Z,15.5
2019-01-25T10:52:24.003Z,15.0
2019-01-25T10:53:23.974Z,14.9
2019-01-25T10:54:23.992Z,14.2
2019-01-25T10:55:23.837Z,15.6
2019-01-25T10:56:24.051Z,15.0
2019-01-25T10:57:24.312Z,15.0
2019-01-25T10:58:24.102Z,14.9
2019-01-25T10:59:24.063Z,15.2
2019-01-25T11:00:24.001Z,14.6
2019-01-25T11:02:34.850Z,13.7
2019-01-25T11:03:34.519Z,13.9
2019-01-25T11:04:34.516Z,13.8
2019-01-25T11:05:34.830Z,13.0
2019-01-25T11:06:34.597Z,13.0
2019-01-25T11:07:34.582Z,13.1
2019-01-25T11:08:34.557Z,13.1
2019-01-25T11:09:37.870Z,12.9
2019-01-25T11:10:34.917Z,12.6
2019-01-25T11:11:34.638Z,12.5
2019-01-25T11:12:34.870Z,12.8
2019-01-25T11:13:34.855Z,12.9
2019-01-25T11:14:34.579Z,12.7
2019-01-25T11:15:34.591Z,12.4
2019-01-25T11:16:34.537Z,12.9
2019-01-25T11:17:36.407Z,12.4
2019-01-25T11:18:34.607Z,12.5
2019-01-25T11:19:34.567Z,12.6
2019-01-25T11:20:34.825Z,12.3
2019-01-25T11:21:37.399Z,12.6
2019-01-25T11:22:34.639Z,12.2
2019-01-25T11:23:34.607Z,12.6
2019-01-25T11:24:34.604Z,11.7
2019-01-25T11:25:34.653Z,12.6
2019-01-25T11:26:34.683Z,11.9
2019-01-25T11:27:34.734Z,12.3
2019-01-25T11:28:34.594Z,11.7
2019-01-25T11:29:35.279Z,11.5
2019-01-25T11:30:34.620Z,11.9
2019-01-25T11:31:34.646Z,11.5
2019-01-25T11:32:36.054Z,11.7
2019-01-25T11:33:34.640Z,11.9
2019-01-25T11:34:34.587Z,11.2
2019-01-25T11:35:34.891Z,11.8
2019-01-25T11:36:34.869Z,11.5
2019-01-25T11:37:34.864Z,11.5
2019-01-25T11:38:34.570Z,11.3
2019-01-25T11:39:34.878Z,11.4
2019-01-25T11:40:34.627Z,10.9
2019-01-25T11:41:34.903Z,11.1
2019-01-25T11:42:34.682Z,11.4
2019-01-25T11:43:34.619Z,11.6
2019-01-25T11:44:34.689Z,11.4
2019-01-25T11:45:34.625Z,11.4
2019-01-25T11:46:34.628Z,12.1
2019-01-25T11:47:35.695Z,11.3
2019-01-25T11:48:34.650Z,11.7
2019-01-25T11:49:34.607Z,10.6
2019-01-25T11:50:35.003Z,11.4
2019-01-25T11:51:34.627Z,11.1
2019-01-25T11:52:34.628Z,11.7
2019-01-25T11:53:34.966Z,11.6
2019-01-25T11:54:34.639Z,10.7
2019-01-25T11:55:34.606Z,11.0
2019-01-25T11:56:34.625Z,11.5
2019-01-25T11:57:34.587Z,11.2
2019-01-25T11:58:34.631Z,11.4
2019-01-25T11:59:34.947Z,11.0
2019-01-25T12:00:34.981Z,11.3
2019-01-25T12:01:34.650Z,10.9
2019-01-25T12:02:34.648Z,11.4
2019-01-25T12:03:34.634Z,11.1
2019-01-25T12:04:34.634Z,11.7
2019-01-25T12:05:34.989Z,11.4
2019-01-25T12:06:34.904Z,11.3
2019-01-25T12:07:34.682Z,11.6
2019-01-25T12:08:34.633Z,11.3
2019-01-25T12:09:34.688Z,11.1
2019-01-25T12:10:34.653Z,11.9
2019-01-25T12:11:34.669Z,11.0
2019-01-25T12:12:34.674Z,11.2
2019-01-25T12:13:34.697Z,11.1
2019-01-25T12:14:34.943Z,11.0
2019-01-25T12:15:34.674Z,11.4
2019-01-25T12:16:34.935Z,10.7
2019-01-25T12:17:34.713Z,10.5
2019-01-25T12:18:34.643Z,11.4
2019-01-25T12:19:35.193Z,11.6
2019-01-25T12:20:34.712Z,11.4
2019-01-25T12:21:34.670Z,11.6
2019-01-25T12:22:34.765Z,11.8
2019-01-25T12:23:34.724Z,11.5
2019-01-25T12:24:34.689Z,11.6
2019-01-25T12:25:34.663Z,11.5
2019-01-25T12:26:34.609Z,12.2
2019-01-25T12:27:34.664Z,11.4
2019-01-25T12:28:35.038Z,11.7
2019-01-25T12:29:34.754Z,11.8
2019-01-25T12:30:37.842Z,12.0
2019-01-25T12:31:34.715Z,12.0
2019-01-25T12:32:34.689Z,11.8
2019-01-25T12:33:34.657Z,11.6
2019-01-25T12:34:34.714Z,10.8
2019-01-25T12:35:34.663Z,12.0
2019-01-25T12:36:34.715Z,10.6
2019-01-25T12:37:34.726Z,11.0
2019-01-25T12:38:35.030Z,11.1
2019-01-25T12:39:34.694Z,10.9
2019-01-25T12:40:35.094Z,11.0
2019-01-25T12:41:34.714Z,11.3
2019-01-25T12:42:34.678Z,11.0
2019-01-25T12:43:34.972Z,11.3
2019-01-25T12:44:34.734Z,10.8
2019-01-25T12:45:34.736Z,10.7
2019-01-25T12:46:34.719Z,10.6
2019-01-25T12:47:34.827Z,11.0
2019-01-25T12:48:35.034Z,10.5
2019-01-25T12:49:34.692Z,10.1
2019-01-25T12:50:34.764Z,10.2
2019-01-25T12:51:34.706Z,10.3
2019-01-25T12:52:35.023Z,10.5
2019-01-25T12:53:34.711Z,10.5
2019-01-25T12:54:34.740Z,10.5
2019-01-25T12:55:34.742Z,10.5
2019-01-25T12:56:34.781Z,10.5
2019-01-25T12:57:35.089Z,10.0
2019-01-25T12:58:34.754Z,10.3
2019-01-25T12:59:34.706Z,10.8
2019-01-25T13:00:34.943Z,10.1
2019-01-25T13:01:35.080Z,10.1
2019-01-25T13:02:35.043Z,10.0
2019-01-25T13:03:34.785Z,10.5
2019-01-25T13:04:34.735Z,10.4
2019-01-25T13:05:34.762Z,10.3
2019-01-25T13:06:35.050Z,10.4
2019-01-25T13:07:34.744Z,9.9
2019-01-25T13:08:34.721Z,10.4
2019-01-25T13:09:34.740Z,10.2
2019-01-25T13:10:34.749Z,9.8
2019-01-25T13:11:35.028Z,10.2
2019-01-25T13:12:35.062Z,9.8
2019-01-25T13:13:35.110Z,9.6
2019-01-25T13:14:34.729Z,9.6
2019-01-25T13:15:34.821Z,10.4
2019-01-25T13:16:34.797Z,9.9
2019-01-25T13:17:34.787Z,10.4
2019-01-25T13:18:34.752Z,9.7
2019-01-25T13:19:34.700Z,9.8
2019-01-25T13:20:39.263Z,9.5